createdAt,value
2019-05-07T00:00:25.533Z,99.90
2019-05-07T00:02:55.481Z,99.90
2019-05-07T00:05:25.659Z,99.90
2019-05-07T00:10:25.059Z,99.90
2019-05-07T00:12:55.172Z,99.90
2019-05-07T00:15:25.117Z,99.90
2019-05-07T00:17:55.076Z,99.90
2019-05-07T00:20:25.045Z,99.90
2019-05-07T00:22:54.952Z,99.90
2019-05-07T00:25:24.827Z,99.90
2019-05-07T00:27:54.765Z,99.90
2019-05-07T00:30:24.696Z,99.90
2019-05-07T00:40:43.867Z,99.90
2019-05-07T00:43:17.194Z,99.90
2019-05-07T00:48:23.507Z,99.90
2019-05-07T00:53:27.021Z,99.90
2019-05-07T00:58:27.017Z,99.90
2019-05-07T01:03:26.298Z,99.90
2019-05-07T01:05:56.297Z,99.90
2019-05-07T01:08:26.182Z,99.90
2019-05-07T01:13:25.734Z,99.90
2019-05-07T01:15:55.667Z,99.90
2019-05-07T01:18:25.634Z,99.90
2019-05-07T01:23:24.830Z,99.90
2019-05-07T01:28:24.121Z,99.90
2019-05-07T01:33:29.958Z,99.90
2019-05-07T01:38:35.690Z,99.90
2019-05-07T01:41:05.781Z,99.90
2019-05-07T01:43:35.703Z,99.90
2019-05-07T01:46:05.653Z,99.90
2019-05-07T01:48:35.569Z,99.90
2019-05-07T01:51:05.547Z,99.90
2019-05-07T01:53:35.472Z,99.90
2019-05-07T01:56:05.566Z,99.90
2019-05-07T01:58:35.517Z,99.90
2019-05-07T02:01:05.507Z,99.90
2019-05-07T02:03:59.795Z,99.90
2019-05-07T02:06:54.938Z,99.90
2019-05-07T02:09:34.021Z,99.90
2019-05-07T02:12:22.219Z,99.90
2019-05-07T02:14:53.063Z,99.90
2019-05-07T02:17:23.141Z,99.90
2019-05-07T02:19:53.054Z,99.90
2019-05-07T02:22:23.291Z,99.90
2019-05-07T02:24:53.411Z,99.90
2019-05-07T02:29:53.091Z,99.90
2019-05-07T02:32:24.031Z,99.90
2019-05-07T02:37:40.775Z,99.90
2019-05-07T02:40:09.567Z,99.90
2019-05-07T02:45:36.807Z,99.90
2019-05-07T02:50:43.724Z,99.90
2019-05-07T02:53:22.568Z,99.90
2019-05-07T02:58:24.175Z,99.90
2019-05-07T03:00:54.504Z,99.90
2019-05-07T03:05:54.905Z,99.90
2019-05-07T03:10:55.820Z,99.90
2019-05-07T03:13:25.818Z,99.90
2019-05-07T03:15:55.892Z,99.90
2019-05-07T03:18:25.930Z,99.90
2019-05-07T03:21:03.965Z,99.90
2019-05-07T03:23:58.996Z,99.90
2019-05-07T03:32:09.711Z,99.90
2019-05-07T03:35:06.389Z,99.90
2019-05-07T03:48:13.760Z,99.90
2019-05-07T03:50:43.868Z,99.90
2019-05-07T03:53:14.534Z,99.90
2019-05-07T03:55:45.069Z,99.90
2019-05-07T03:58:15.093Z,99.90
2019-05-07T04:03:19.451Z,99.90
2019-05-07T04:05:46.980Z,99.90
2019-05-07T04:08:16.898Z,99.90
2019-05-07T04:10:46.784Z,99.90
2019-05-07T04:13:16.724Z,99.90
2019-05-07T04:15:46.636Z,99.90
2019-05-07T04:18:16.603Z,99.90
2019-05-07T04:20:46.518Z,99.90
2019-05-07T04:23:16.483Z,99.90
2019-05-07T04:25:56.812Z,99.90
2019-05-07T04:28:36.366Z,99.90
2019-05-07T04:33:39.221Z,99.90
2019-05-07T04:36:23.198Z,99.90
2019-05-07T04:41:23.717Z,99.90
2019-05-07T04:51:33.635Z,99.90
2019-05-07T04:54:03.985Z,99.90
2019-05-07T04:56:34.014Z,99.90
2019-05-07T04:59:05.802Z,99.90
2019-05-07T05:01:39.456Z,99.90
2019-05-07T05:06:42.424Z,99.90
2019-05-07T05:11:43.885Z,99.90
2019-05-07T05:16:43.844Z,99.90
2019-05-07T05:19:14.054Z,99.90
2019-05-07T05:22:09.434Z,99.90
2019-05-07T05:24:43.751Z,99.90
2019-05-07T05:27:13.711Z,99.90
2019-05-07T05:29:43.862Z,99.90
2019-05-07T05:32:13.819Z,99.90
2019-05-07T05:37:12.994Z,99.90
2019-05-07T05:39:42.947Z,99.90
2019-05-07T05:42:23.590Z,99.90
2019-05-07T05:44:53.525Z,99.90
2019-05-07T05:47:23.369Z,99.90
2019-05-07T05:49:53.478Z,99.90
2019-05-07T05:57:52.162Z,99.90
2019-05-07T06:00:42.266Z,99.90
2019-05-07T06:03:37.162Z,99.90
2019-05-07T06:06:17.595Z,99.90
2019-05-07T06:11:45.514Z,99.90
2019-05-07T06:14:43.505Z,99.90
2019-05-07T06:17:42.559Z,99.90
2019-05-07T06:20:42.879Z,99.90
2019-05-07T06:23:28.600Z,99.90
2019-05-07T06:28:28.024Z,99.90
2019-05-07T06:30:57.930Z,99.90
2019-05-07T06:33:28.010Z,99.90
2019-05-07T06:38:29.233Z,99.90
2019-05-07T06:41:12.165Z,99.90
2019-05-07T06:46:23.224Z,99.90
2019-05-07T06:48:53.180Z,99.90
2019-05-07T06:51:23.150Z,97.80
2019-05-07T06:53:53.078Z,94.30
2019-05-07T06:56:23.173Z,91.80
2019-05-07T06:59:05.193Z,87.10
2019-05-07T07:04:38.542Z,88.50
2019-05-07T07:07:29.655Z,89.10
2019-05-07T07:10:03.395Z,85.80
2019-05-07T07:12:33.607Z,78.40
2019-05-07T07:15:03.985Z,69.40
2019-05-07T07:17:34.263Z,69.10
2019-05-07T07:20:04.429Z,61.80
2019-05-07T07:22:34.484Z,60.10
2019-05-07T07:25:06.691Z,57.40
2019-05-07T07:27:36.550Z,56.20
2019-05-07T07:30:22.842Z,56.90
2019-05-07T07:32:53.564Z,55.60
2019-05-07T07:35:23.563Z,52.80
2019-05-07T07:37:53.531Z,53.00
2019-05-07T07:40:42.610Z,51.80
2019-05-07T07:43:13.019Z,52.90
2019-05-07T07:45:43.059Z,52.80
2019-05-07T07:48:13.291Z,53.50
2019-05-07T07:50:43.237Z,51.70
2019-05-07T07:53:13.384Z,51.30
2019-05-07T07:56:02.552Z,48.70
2019-05-07T07:58:39.285Z,48.90
2019-05-07T08:01:24.674Z,47.50
2019-05-07T08:03:54.641Z,47.70
2019-05-07T08:06:26.212Z,46.90
2019-05-07T08:08:56.165Z,45.30
2019-05-07T08:11:26.142Z,39.50
2019-05-07T08:13:56.203Z,39.10
2019-05-07T08:16:26.185Z,45.80
2019-05-07T08:18:56.095Z,47.00
2019-05-07T08:21:26.422Z,44.70
2019-05-07T08:26:27.282Z,43.10
2019-05-07T08:28:57.238Z,43.90
2019-05-07T08:31:35.165Z,39.60
2019-05-07T08:34:19.172Z,44.70
2019-05-07T08:36:49.121Z,41.50
2019-05-07T08:39:19.017Z,44.50
2019-05-07T08:41:48.943Z,46.00
2019-05-07T08:44:22.296Z,47.90
2019-05-07T08:49:44.014Z,49.40
2019-05-07T08:59:43.919Z,51.10
2019-05-07T09:02:13.844Z,50.30
2019-05-07T09:07:13.463Z,52.90
2019-05-07T09:09:43.571Z,57.40
2019-05-07T09:12:13.710Z,54.10
2019-05-07T09:17:13.008Z,55.20
2019-05-07T09:19:50.963Z,56.90
2019-05-07T09:22:14.634Z,54.40
2019-05-07T09:24:44.800Z,54.90
2019-05-07T09:30:13.533Z,53.70
2019-05-07T09:37:58.005Z,54.60
2019-05-07T09:40:28.012Z,54.30
2019-05-07T09:42:58.777Z,54.60
2019-05-07T09:45:28.889Z,57.70
2019-05-07T09:47:59.949Z,53.40
2019-05-07T09:50:32.310Z,56.10
2019-05-07T09:53:02.448Z,54.60
2019-05-07T09:58:02.718Z,59.20
2019-05-07T10:00:32.897Z,54.90
2019-05-07T10:03:02.926Z,53.90
2019-05-07T10:05:32.861Z,55.90
2019-05-07T10:08:03.080Z,57.30
2019-05-07T10:10:33.063Z,54.60
2019-05-07T10:13:22.546Z,51.60
2019-05-07T10:18:22.931Z,53.10
2019-05-07T10:23:23.252Z,54.90
2019-05-07T10:25:54.609Z,56.40
2019-05-07T10:28:24.959Z,49.80
2019-05-07T10:30:55.473Z,47.80
2019-05-07T10:33:25.557Z,50.20
2019-05-07T10:38:24.738Z,49.40
2019-05-07T10:40:54.697Z,50.60
2019-05-07T10:43:24.742Z,49.70
2019-05-07T10:46:12.841Z,49.70
2019-05-07T10:49:01.960Z,52.30
2019-05-07T10:54:02.396Z,50.80
2019-05-07T10:59:03.039Z,51.20
2019-05-07T11:01:52.885Z,53.60
2019-05-07T11:04:22.746Z,52.40
2019-05-07T11:06:52.730Z,49.80
2019-05-07T11:09:22.678Z,51.30
2019-05-07T11:11:52.612Z,51.90
2019-05-07T11:17:02.594Z,51.70
2019-05-07T11:19:32.604Z,51.20
2019-05-07T11:22:02.579Z,49.40
2019-05-07T11:24:32.538Z,52.50
2019-05-07T11:29:33.825Z,51.10
2019-05-07T11:32:03.928Z,50.70
2019-05-07T11:34:36.674Z,48.80
2019-05-07T11:37:06.637Z,51.10
2019-05-07T11:39:36.567Z,48.60
2019-05-07T11:42:42.692Z,48.00
2019-05-07T11:45:17.765Z,48.00
2019-05-07T11:51:01.531Z,48.10
2019-05-07T11:53:23.289Z,46.50
2019-05-07T11:55:53.255Z,44.20
2019-05-07T11:58:23.283Z,46.20
2019-05-07T12:00:58.455Z,46.00
2019-05-07T12:03:28.406Z,49.90
2019-05-07T12:05:58.362Z,51.10
2019-05-07T12:08:39.385Z,48.30
2019-05-07T12:11:02.430Z,52.00
2019-05-07T12:16:03.123Z,48.00
2019-05-07T12:18:33.326Z,47.30
2019-05-07T12:21:16.765Z,46.70
2019-05-07T12:23:36.335Z,46.00
2019-05-07T12:26:06.616Z,46.20
2019-05-07T12:28:36.698Z,43.20
2019-05-07T12:31:45.738Z,45.30
2019-05-07T12:34:23.035Z,47.30
2019-05-07T12:41:52.530Z,46.80
2019-05-07T12:46:52.552Z,48.30
2019-05-07T12:49:22.493Z,50.10
2019-05-07T12:54:44.947Z,47.60
2019-05-07T12:57:14.897Z,46.10
2019-05-07T12:59:44.745Z,45.30
2019-05-07T13:02:37.165Z,46.10
2019-05-07T13:04:58.825Z,46.30
2019-05-07T13:08:02.777Z,46.70
2019-05-07T13:10:32.735Z,46.00
2019-05-07T13:13:02.732Z,46.50
2019-05-07T13:15:32.749Z,43.30
2019-05-07T13:18:02.892Z,42.90
2019-05-07T13:20:32.943Z,41.50
2019-05-07T13:23:03.744Z,41.80
2019-05-07T13:25:34.169Z,44.00
2019-05-07T13:28:05.129Z,42.40
2019-05-07T13:30:35.075Z,44.60
2019-05-07T13:33:05.898Z,44.60
2019-05-07T13:35:36.679Z,42.40
2019-05-07T13:38:24.761Z,41.00
2019-05-07T13:41:02.365Z,40.60
2019-05-07T13:43:37.393Z,40.80
2019-05-07T13:46:11.888Z,38.70
2019-05-07T13:48:45.197Z,40.80
2019-05-07T13:51:13.878Z,40.80
2019-05-07T13:53:43.852Z,41.10
2019-05-07T13:56:13.797Z,40.90
2019-05-07T13:58:43.798Z,40.70
2019-05-07T14:01:32.646Z,42.50
2019-05-07T14:04:04.087Z,43.50
2019-05-07T14:06:42.587Z,44.90
2019-05-07T14:09:17.210Z,46.70
2019-05-07T14:11:47.370Z,44.80
2019-05-07T14:14:17.413Z,46.50
2019-05-07T14:16:47.673Z,46.00
2019-05-07T14:19:17.945Z,45.40
2019-05-07T14:21:47.811Z,42.90
2019-05-07T14:31:51.657Z,45.90
2019-05-07T14:34:34.369Z,44.10
2019-05-07T14:37:24.737Z,44.10
2019-05-07T14:39:54.957Z,44.50
2019-05-07T14:42:33.474Z,43.60
2019-05-07T14:45:03.688Z,41.00
2019-05-07T14:47:33.689Z,41.20
2019-05-07T14:50:04.324Z,41.60
2019-05-07T14:52:36.259Z,40.70
2019-05-07T14:55:07.626Z,41.90
2019-05-07T14:57:37.874Z,40.80
2019-05-07T15:00:08.358Z,40.60
2019-05-07T15:02:38.380Z,40.00
2019-05-07T15:05:08.662Z,38.60
2019-05-07T15:07:38.555Z,42.00
2019-05-07T15:10:08.587Z,42.00
2019-05-07T15:12:40.019Z,40.50
2019-05-07T15:15:12.497Z,39.50
2019-05-07T15:17:52.478Z,40.70
2019-05-07T15:20:22.735Z,41.70
2019-05-07T15:23:23.965Z,40.20
2019-05-07T15:25:53.985Z,39.10
2019-05-07T15:28:23.981Z,41.90
2019-05-07T15:35:58.430Z,46.00
2019-05-07T15:38:28.586Z,44.40
2019-05-07T15:40:58.545Z,46.00
2019-05-07T15:43:28.665Z,47.60
2019-05-07T15:45:58.553Z,45.90
2019-05-07T15:48:28.557Z,45.30
2019-05-07T15:50:58.450Z,45.80
2019-05-07T15:53:52.154Z,43.10
2019-05-07T15:58:51.965Z,45.80
2019-05-07T16:01:22.286Z,45.80
2019-05-07T16:03:54.811Z,43.50
2019-05-07T16:06:23.993Z,45.30
2019-05-07T16:08:57.295Z,45.50
2019-05-07T16:14:27.509Z,46.50
2019-05-07T16:17:07.352Z,47.00
2019-05-07T16:19:37.353Z,46.30
2019-05-07T16:22:12.795Z,47.00
2019-05-07T16:27:12.277Z,48.40
2019-05-07T16:29:42.293Z,48.80
2019-05-07T16:32:12.231Z,50.10
2019-05-07T16:39:42.317Z,50.30
2019-05-07T16:44:42.219Z,51.60
2019-05-07T16:54:42.672Z,50.80
2019-05-07T17:02:38.399Z,52.30
2019-05-07T17:05:12.425Z,52.40
2019-05-07T17:10:26.398Z,53.30
2019-05-07T17:18:02.881Z,55.10
2019-05-07T17:23:03.165Z,55.90
2019-05-07T17:28:08.827Z,55.20
2019-05-07T17:30:38.847Z,57.30
2019-05-07T17:33:08.887Z,56.50
2019-05-07T17:35:38.856Z,58.20
2019-05-07T17:38:09.996Z,56.90
2019-05-07T17:40:42.247Z,54.80
2019-05-07T17:55:46.339Z,60.10
2019-05-07T17:58:16.319Z,60.80
2019-05-07T18:03:33.583Z,60.50
2019-05-07T18:08:33.242Z,63.40
2019-05-07T18:13:34.091Z,63.20
2019-05-07T18:16:29.242Z,65.20
2019-05-07T18:18:59.209Z,63.60
2019-05-07T18:21:29.138Z,64.80
2019-05-07T18:24:12.730Z,67.50
2019-05-07T18:26:33.785Z,66.10
2019-05-07T18:29:02.892Z,67.30
2019-05-07T18:31:47.458Z,66.80
2019-05-07T18:34:17.494Z,67.20
2019-05-07T18:36:47.497Z,67.90
2019-05-07T18:39:20.249Z,62.50
2019-05-07T18:41:49.130Z,62.70
2019-05-07T18:44:19.076Z,61.80
2019-05-07T18:46:49.309Z,62.00
2019-05-07T18:49:19.394Z,76.90
2019-05-07T18:51:49.349Z,63.60
2019-05-07T18:54:29.040Z,65.50
2019-05-07T18:56:52.924Z,64.90
2019-05-07T18:59:25.100Z,64.60
2019-05-07T19:01:55.026Z,65.20
2019-05-07T19:04:25.707Z,72.50
2019-05-07T19:06:55.709Z,73.40
2019-05-07T19:09:25.904Z,73.30
2019-05-07T19:11:56.372Z,71.50
2019-05-07T19:14:26.346Z,72.20
2019-05-07T19:16:56.306Z,76.30
2019-05-07T19:19:26.400Z,77.00
2019-05-07T19:21:56.315Z,70.60
2019-05-07T19:24:26.603Z,68.90
2019-05-07T19:26:56.506Z,69.40
2019-05-07T19:29:26.516Z,70.10
2019-05-07T19:32:03.040Z,71.30
2019-05-07T19:34:32.607Z,70.70
2019-05-07T19:37:02.698Z,72.60
2019-05-07T19:39:33.321Z,72.50
2019-05-07T19:42:03.358Z,73.60
2019-05-07T19:44:33.385Z,72.30
2019-05-07T19:47:03.342Z,73.10
2019-05-07T19:49:33.307Z,74.70
2019-05-07T19:52:03.275Z,73.50
2019-05-07T19:54:33.217Z,73.20
2019-05-07T19:57:03.151Z,83.00
2019-05-07T19:59:33.116Z,74.70
2019-05-07T20:02:05.983Z,74.10
2019-05-07T20:04:35.995Z,75.00
2019-05-07T20:07:05.931Z,76.70
2019-05-07T20:09:37.439Z,76.60
2019-05-07T20:12:08.134Z,76.40
2019-05-07T20:14:38.113Z,76.70
2019-05-07T20:17:08.293Z,77.70
2019-05-07T20:19:38.276Z,78.60
2019-05-07T20:22:08.217Z,78.80
2019-05-07T20:24:38.234Z,86.30
2019-05-07T20:27:08.176Z,80.30
2019-05-07T20:29:39.480Z,80.40
2019-05-07T20:32:09.397Z,89.70
2019-05-07T20:37:12.728Z,88.40
2019-05-07T20:42:12.577Z,82.80
2019-05-07T20:44:42.724Z,83.20
2019-05-07T20:47:12.837Z,90.90
2019-05-07T20:49:42.945Z,85.10
2019-05-07T20:52:12.880Z,91.40
2019-05-07T20:54:59.400Z,90.40
2019-05-07T20:57:33.688Z,85.30
2019-05-07T21:00:04.260Z,87.50
2019-05-07T21:02:44.587Z,87.20
2019-05-07T21:05:05.983Z,91.90
2019-05-07T21:07:35.894Z,92.60
2019-05-07T21:10:06.419Z,93.20
2019-05-07T21:12:36.365Z,93.30
2019-05-07T21:15:06.706Z,93.20
2019-05-07T21:17:36.733Z,92.80
2019-05-07T21:20:07.422Z,93.90
2019-05-07T21:22:39.279Z,93.20
2019-05-07T21:25:12.520Z,94.80
2019-05-07T21:27:43.179Z,94.00
2019-05-07T21:30:13.506Z,93.40
2019-05-07T21:32:43.413Z,95.10
2019-05-07T21:35:13.629Z,92.70
2019-05-07T21:37:43.649Z,97.50
2019-05-07T21:40:13.606Z,94.00
2019-05-07T21:42:43.525Z,96.80
2019-05-07T21:45:13.514Z,94.50
2019-05-07T21:47:44.969Z,99.40
2019-05-07T21:50:15.296Z,95.80
2019-05-07T21:52:51.466Z,99.70
2019-05-07T21:55:41.834Z,96.90
2019-05-07T21:58:45.643Z,97.20
2019-05-07T22:01:32.868Z,97.60
2019-05-07T22:04:02.796Z,97.80
2019-05-07T22:06:32.960Z,98.30
2019-05-07T22:09:02.874Z,98.60
2019-05-07T22:11:33.043Z,98.80
2019-05-07T22:14:02.961Z,99.10
2019-05-07T22:16:33.237Z,99.80
2019-05-07T22:19:03.156Z,99.90
2019-05-07T22:21:34.272Z,99.90
2019-05-07T22:24:04.453Z,99.90
2019-05-07T22:26:34.405Z,99.90
2019-05-07T22:29:04.325Z,99.90
2019-05-07T22:31:43.941Z,99.90
2019-05-07T22:34:19.541Z,99.90
2019-05-07T22:36:49.498Z,99.90
2019-05-07T22:39:19.477Z,99.90
2019-05-07T22:41:49.358Z,99.90
2019-05-07T22:44:19.291Z,99.90
2019-05-07T22:46:49.161Z,99.90
2019-05-07T22:49:19.076Z,99.90
2019-05-07T22:51:48.949Z,99.90
2019-05-07T22:54:18.853Z,99.90
2019-05-07T22:57:06.341Z,99.90
2019-05-07T22:59:36.267Z,99.90
2019-05-07T23:02:06.575Z,99.90
2019-05-07T23:04:36.477Z,99.90
2019-05-07T23:07:06.451Z,99.90
2019-05-07T23:09:36.407Z,99.90
2019-05-07T23:12:06.629Z,99.90
2019-05-07T23:14:36.554Z,99.90
2019-05-07T23:17:06.492Z,99.90
2019-05-07T23:19:36.708Z,99.90
2019-05-07T23:22:06.685Z,99.90
2019-05-07T23:24:36.637Z,99.90
2019-05-07T23:27:06.526Z,99.90
2019-05-07T23:29:36.450Z,99.90
2019-05-07T23:32:06.359Z,99.90
2019-05-07T23:34:36.301Z,99.90
2019-05-07T23:37:06.267Z,99.90
2019-05-07T23:39:38.261Z,99.90
2019-05-07T23:42:13.281Z,99.90
2019-05-07T23:44:43.182Z,99.90
2019-05-07T23:47:13.162Z,99.90
2019-05-07T23:49:43.162Z,99.90
2019-05-07T23:52:13.147Z,99.90
2019-05-07T23:54:43.126Z,99.90
2019-05-07T23:57:15.364Z,99.90
2019-05-07T23:59:44.631Z,99.90
